Burgtor — V2OR7 — position and weather

sailwx.info

Track history (hours):
 
Tides and Currents Weather Stations Pressure Air Temp Water Temp Dewpoint Dewpoint Depression Visibility Wind Speed Wind Dir Waves Ship Positions

Burgtor

Last reported at 2015-Apr-01 02:32 UTC. Time now 2015-Apr-01 03:12 UTC.
Position N 53°56' E 000°12'.

Length 87 m; draft 5 m.

Type: Cargo ship. MMSI: 304665000.

Date/timePositionNaut miles runAvg speedWind from/ knotsBaromVisibWave heightAir tempDewpointWater temp
2015-Apr-01 02:32N 53°56' E 000°12'4 4.0
2015-Apr-01 01:33N 53°52' E 000°16'4 4.2
2015-Apr-01 00:33N 53°49' E 000°19'4 4.4
2015-Mar-31 23:33N 53°45' E 000°22'4 4.3
2015-Mar-31 22:33N 53°41' E 000°26'5 4.8
2015-Mar-31 21:32N 53°37' E 000°31'36 3.8
2015-Mar-31 12:10N 53°11' E 001°13'3 4.9
2015-Mar-31 11:33N 53°09' E 001°16'5 4.7
2015-Mar-31 10:33N 53°05' E 001°20'4 4.3
2015-Mar-31 09:33N 53°01' E 001°22'4 3.7
2015-Mar-31 08:33N 52°57' E 001°24'5 5.1
2015-Mar-31 07:34N 52°59' E 001°16'5 1.3
2015-Mar-31 03:26N 53°02' E 001°08'6 6.5
2015-Mar-31 02:33N 52°59' E 001°17'7 7.3
2015-Mar-31 01:33N 52°56' E 001°27'1010.4
2015-Mar-31 00:33N 52°50' E 001°41'1110.8
2015-Mar-30 23:33N 52°43' E 001°55'1212.4
2015-Mar-30 22:33N 52°30' E 001°53'1511.6
2015-Mar-30 21:15N 52°15' E 001°51'710.5
2015-Mar-30 20:33N 52°08' E 001°50'10 9.6
2015-Mar-30 19:33N 51°58' E 001°48'9 8.9
2015-Mar-30 18:33N 51°49' E 001°47'8 8.4
2015-Mar-30 17:33N 51°41' E 001°48'8 8.1
2015-Mar-30 16:33N 51°34' E 001°43'9 8.6
2015-Mar-30 15:33N 51°28' E 001°33'6 6.1
2015-Mar-30 14:33N 51°25' E 001°24'0 0.0
2015-Mar-30 13:34N 51°25' E 001°24'6 5.9
2015-Mar-30 12:33N 51°27' E 001°33'8 7.6
2015-Mar-30 11:33N 51°28' E 001°45'7 7.0
2015-Mar-30 10:33N 51°27' E 001°56'6 5.7
2015-Mar-30 09:33N 51°23' E 002°03'6 6.5
2015-Mar-30 08:33N 51°16' E 002°06'7 6.9
2015-Mar-30 07:33N 51°11' E 001°59'8 8.0
2015-Mar-30 06:33N 51°07' E 001°48'9 8.5
2015-Mar-30 05:33N 51°00' E 001°39'178 8.3
2015-Mar-29 08:08N 50°14' W 002°52'5 8.5
2015-Mar-29 07:33N 50°14' W 002°60'9 8.6
2015-Mar-29 06:33N 50°13' W 003°13'9 9.0
2015-Mar-29 05:33N 50°12' W 003°27'160 5.3
2015-Mar-27 23:28N 51°50' W 006°49'7 8.2
2015-Mar-27 22:33N 51°57' W 006°52'8 8.3
2015-Mar-27 21:33N 52°05' W 006°56'7 7.4
2015-Mar-27 20:33N 52°12' W 006°56'5 5.0
2015-Mar-27 19:33N 52°16' W 007°02'0 0.0
2015-Mar-27 18:33N 52°16' W 007°02'0 0.0
2015-Mar-27 17:33N 52°16' W 007°02'0 0.0
2015-Mar-27 16:33N 52°16' W 007°02'0 0.0
2015-Mar-27 15:33N 52°16' W 007°02'0 0.0
2015-Mar-27 14:33N 52°16' W 007°02'0 0.0
2015-Mar-27 12:33N 52°16' W 007°02'0 0.0
2015-Mar-27 10:33N 52°16' W 007°02'0 0.0
2015-Mar-27 09:27N 52°16' W 007°02'0 0.0
2015-Mar-27 08:30N 52°16' W 007°02'0 0.0
2015-Mar-27 07:33N 52°16' W 007°02'0 0.0
2015-Mar-27 06:33N 52°16' W 007°02'0 0.0
2015-Mar-27 05:29N 52°16' W 007°02'0 0.0
2015-Mar-27 04:33N 52°16' W 007°02'0 0.0
2015-Mar-27 03:32N 52°16' W 007°02'0 0.0
2015-Mar-27 02:32N 52°16' W 007°02'0 0.0
2015-Mar-27 01:32N 52°16' W 007°02'0 0.0
2015-Mar-27 00:32N 52°16' W 007°02'0 0.0
2015-Mar-26 23:32N 52°16' W 007°02'0 0.0
2015-Mar-26 22:32N 52°16' W 007°02'0 0.0
2015-Mar-26 21:32N 52°16' W 007°02'0 0.0
2015-Mar-26 20:29N 52°16' W 007°02'0 0.0
2015-Mar-26 19:26N 52°16' W 007°02'0 0.0
2015-Mar-26 18:32N 52°16' W 007°02'0 0.0
2015-Mar-26 17:32N 52°16' W 007°02'0 0.0
2015-Mar-26 16:32N 52°16' W 007°02'0 0.0
2015-Mar-26 15:32N 52°16' W 007°02'0 0.0
2015-Mar-26 14:32N 52°16' W 007°02'0 0.0
2015-Mar-26 13:32N 52°16' W 007°02'0 0.0
2015-Mar-26 12:32N 52°16' W 007°02'0 0.0
2015-Mar-26 11:32N 52°16' W 007°02'0 0.0
2015-Mar-26 10:32N 52°16' W 007°02'0 0.1
2015-Mar-26 09:29N 52°16' W 007°02'4 4.7
2015-Mar-26 08:33N 52°13' W 006°56'4 4.3
2015-Mar-26 07:33N 52°09' W 006°58'0 0.1
2015-Mar-26 06:33N 52°09' W 006°58'0 0.0
2015-Mar-26 05:33N 52°09' W 006°58'0 0.1
2015-Mar-26 04:33N 52°09' W 006°58'0 0.0
2015-Mar-26 03:33N 52°09' W 006°58'0 0.1
2015-Mar-26 02:27N 52°09' W 006°58'0 0.1
2015-Mar-26 01:33N 52°09' W 006°58'1 0.5
2015-Mar-26 00:33N 52°09' W 006°58'6 5.7
2015-Mar-25 23:33N 52°03' W 006°55'7 7.0
2015-Mar-25 22:33N 51°56' W 006°51'167 6.9
2015-Mar-24 22:30N 50°07' W 003°31'7 7.8
2015-Mar-24 21:33N 50°09' W 003°19'8 7.9
2015-Mar-24 20:33N 50°10' W 003°07'8 8.2
2015-Mar-24 19:33N 50°12' W 002°54'119 9.8
2015-Mar-24 07:24N 50°34' E 000°09'1011.4
2015-Mar-24 06:33N 50°37' E 000°24'1111.2
2015-Mar-24 05:33N 50°41' E 000°40'1010.2
2015-Mar-24 04:33N 50°47' E 000°53'17 8.7
2015-Mar-24 02:32N 50°58' E 001°15'7 7.4
2015-Mar-24 01:33N 51°03' E 001°24'9 9.2
2015-Mar-24 00:33N 51°08' E 001°35'1111.3
2015-Mar-23 23:34N 51°16' E 001°48'1212.4
2015-Mar-23 22:33N 51°26' E 001°60'1212.1
2015-Mar-23 21:33N 51°35' E 002°13'61 8.4
2015-Mar-23 14:18N 52°03' E 003°41'7 9.8
2015-Mar-23 13:33N 52°02' E 003°53'10 9.9
2015-Mar-23 12:33N 51°58' E 004°08'1110.5
2015-Mar-23 11:33N 51°54' E 004°23'1 1.2
2015-Mar-23 10:30N 51°54' E 004°25'0 0.0
2015-Mar-23 09:33N 51°54' E 004°25'0 0.0
2015-Mar-23 08:33N 51°54' E 004°25'0 0.0
2015-Mar-23 07:33N 51°54' E 004°25'0 0.0
2015-Mar-23 06:33N 51°54' E 004°25'0 0.0
2015-Mar-23 05:33N 51°54' E 004°25'0 0.0
2015-Mar-23 04:33N 51°54' E 004°25'0 0.0
2015-Mar-23 03:33N 51°54' E 004°25'0 0.0
2015-Mar-23 02:33N 51°54' E 004°25'0 0.0
2015-Mar-23 01:33N 51°54' E 004°25'0 0.0
2015-Mar-23 00:33N 51°54' E 004°25'0 0.0
2015-Mar-22 23:33N 51°54' E 004°25'0 0.0
2015-Mar-22 22:33N 51°54' E 004°25'0 0.0
2015-Mar-22 21:33N 51°54' E 004°25'0 0.0
2015-Mar-22 20:30N 51°54' E 004°25'0 0.0
2015-Mar-22 19:33N 51°54' E 004°25'0 0.0
2015-Mar-22 18:33N 51°54' E 004°25'0 0.0
2015-Mar-22 17:33N 51°54' E 004°25'0 0.0
2015-Mar-22 16:33N 51°54' E 004°25'0 0.4
2015-Mar-22 15:33N 51°54' E 004°25'1010.5
2015-Mar-22 14:33N 51°58' E 004°09'10 9.6
2015-Mar-22 13:33N 52°00' E 003°54'76 9.3
2015-Mar-22 05:28N 52°39' E 002°08'7 7.9
2015-Mar-22 04:33N 52°43' E 001°58'7 7.0
2015-Mar-22 03:33N 52°47' E 001°48'7 7.1
2015-Mar-22 02:33N 52°51' E 001°39'  
Track history (hours):
 
Tides and Currents Weather Stations Pressure Air Temp Water Temp Dewpoint Dewpoint Depression Visibility Wind Speed Wind Dir Waves Ship Positions

Burgtor

Last reported at 2015-Apr-01 02:32 UTC. Time now 2015-Apr-01 03:12 UTC.
Position N 53°56' E 000°12'.

Length 87 m; draft 5 m.

Type: Cargo ship. MMSI: 304665000.

Date/timePositionNaut miles runAvg speedWind from/ knotsBaromVisibWave heightAir tempDewpointWater temp
2015-Apr-01 02:32N 53°56' E 000°12'4 4.0
2015-Apr-01 01:33N 53°52' E 000°16'4 4.2
2015-Apr-01 00:33N 53°49' E 000°19'4 4.4
2015-Mar-31 23:33N 53°45' E 000°22'4 4.3
2015-Mar-31 22:33N 53°41' E 000°26'5 4.8
2015-Mar-31 21:32N 53°37' E 000°31'36 3.8
2015-Mar-31 12:10N 53°11' E 001°13'3 4.9
2015-Mar-31 11:33N 53°09' E 001°16'5 4.7
2015-Mar-31 10:33N 53°05' E 001°20'4 4.3
2015-Mar-31 09:33N 53°01' E 001°22'4 3.7
2015-Mar-31 08:33N 52°57' E 001°24'5 5.1
2015-Mar-31 07:34N 52°59' E 001°16'5 1.3
2015-Mar-31 03:26N 53°02' E 001°08'6 6.5
2015-Mar-31 02:33N 52°59' E 001°17'7 7.3
2015-Mar-31 01:33N 52°56' E 001°27'1010.4
2015-Mar-31 00:33N 52°50' E 001°41'1110.8
2015-Mar-30 23:33N 52°43' E 001°55'1212.4
2015-Mar-30 22:33N 52°30' E 001°53'1511.6
2015-Mar-30 21:15N 52°15' E 001°51'710.5
2015-Mar-30 20:33N 52°08' E 001°50'10 9.6
2015-Mar-30 19:33N 51°58' E 001°48'9 8.9
2015-Mar-30 18:33N 51°49' E 001°47'8 8.4
2015-Mar-30 17:33N 51°41' E 001°48'8 8.1
2015-Mar-30 16:33N 51°34' E 001°43'9 8.6
2015-Mar-30 15:33N 51°28' E 001°33'6 6.1
2015-Mar-30 14:33N 51°25' E 001°24'0 0.0
2015-Mar-30 13:34N 51°25' E 001°24'6 5.9
2015-Mar-30 12:33N 51°27' E 001°33'8 7.6
2015-Mar-30 11:33N 51°28' E 001°45'7 7.0
2015-Mar-30 10:33N 51°27' E 001°56'6 5.7
2015-Mar-30 09:33N 51°23' E 002°03'6 6.5
2015-Mar-30 08:33N 51°16' E 002°06'7 6.9
2015-Mar-30 07:33N 51°11' E 001°59'8 8.0
2015-Mar-30 06:33N 51°07' E 001°48'9 8.5
2015-Mar-30 05:33N 51°00' E 001°39'178 8.3
2015-Mar-29 08:08N 50°14' W 002°52'5 8.5
2015-Mar-29 07:33N 50°14' W 002°60'9 8.6
2015-Mar-29 06:33N 50°13' W 003°13'9 9.0
2015-Mar-29 05:33N 50°12' W 003°27'160 5.3
2015-Mar-27 23:28N 51°50' W 006°49'7 8.2
2015-Mar-27 22:33N 51°57' W 006°52'8 8.3
2015-Mar-27 21:33N 52°05' W 006°56'7 7.4
2015-Mar-27 20:33N 52°12' W 006°56'5 5.0
2015-Mar-27 19:33N 52°16' W 007°02'0 0.0
2015-Mar-27 18:33N 52°16' W 007°02'0 0.0
2015-Mar-27 17:33N 52°16' W 007°02'0 0.0
2015-Mar-27 16:33N 52°16' W 007°02'0 0.0
2015-Mar-27 15:33N 52°16' W 007°02'0 0.0
2015-Mar-27 14:33N 52°16' W 007°02'0 0.0
2015-Mar-27 12:33N 52°16' W 007°02'0 0.0
2015-Mar-27 10:33N 52°16' W 007°02'0 0.0
2015-Mar-27 09:27N 52°16' W 007°02'0 0.0
2015-Mar-27 08:30N 52°16' W 007°02'0 0.0
2015-Mar-27 07:33N 52°16' W 007°02'0 0.0
2015-Mar-27 06:33N 52°16' W 007°02'0 0.0
2015-Mar-27 05:29N 52°16' W 007°02'0 0.0
2015-Mar-27 04:33N 52°16' W 007°02'0 0.0
2015-Mar-27 03:32N 52°16' W 007°02'0 0.0
2015-Mar-27 02:32N 52°16' W 007°02'0 0.0
2015-Mar-27 01:32N 52°16' W 007°02'0 0.0
2015-Mar-27 00:32N 52°16' W 007°02'0 0.0
2015-Mar-26 23:32N 52°16' W 007°02'0 0.0
2015-Mar-26 22:32N 52°16' W 007°02'0 0.0
2015-Mar-26 21:32N 52°16' W 007°02'0 0.0
2015-Mar-26 20:29N 52°16' W 007°02'0 0.0
2015-Mar-26 19:26N 52°16' W 007°02'0 0.0
2015-Mar-26 18:32N 52°16' W 007°02'0 0.0
2015-Mar-26 17:32N 52°16' W 007°02'0 0.0
2015-Mar-26 16:32N 52°16' W 007°02'0 0.0
2015-Mar-26 15:32N 52°16' W 007°02'0 0.0
2015-Mar-26 14:32N 52°16' W 007°02'0 0.0
2015-Mar-26 13:32N 52°16' W 007°02'0 0.0
2015-Mar-26 12:32N 52°16' W 007°02'0 0.0
2015-Mar-26 11:32N 52°16' W 007°02'0 0.0
2015-Mar-26 10:32N 52°16' W 007°02'0 0.1
2015-Mar-26 09:29N 52°16' W 007°02'4 4.7
2015-Mar-26 08:33N 52°13' W 006°56'4 4.3
2015-Mar-26 07:33N 52°09' W 006°58'0 0.1
2015-Mar-26 06:33N 52°09' W 006°58'0 0.0
2015-Mar-26 05:33N 52°09' W 006°58'0 0.1
2015-Mar-26 04:33N 52°09' W 006°58'0 0.0
2015-Mar-26 03:33N 52°09' W 006°58'0 0.1
2015-Mar-26 02:27N 52°09' W 006°58'0 0.1
2015-Mar-26 01:33N 52°09' W 006°58'1 0.5
2015-Mar-26 00:33N 52°09' W 006°58'6 5.7
2015-Mar-25 23:33N 52°03' W 006°55'7 7.0
2015-Mar-25 22:33N 51°56' W 006°51'167 6.9
2015-Mar-24 22:30N 50°07' W 003°31'7 7.8
2015-Mar-24 21:33N 50°09' W 003°19'8 7.9
2015-Mar-24 20:33N 50°10' W 003°07'8 8.2
2015-Mar-24 19:33N 50°12' W 002°54'119 9.8
2015-Mar-24 07:24N 50°34' E 000°09'1011.4
2015-Mar-24 06:33N 50°37' E 000°24'1111.2
2015-Mar-24 05:33N 50°41' E 000°40'1010.2
2015-Mar-24 04:33N 50°47' E 000°53'17 8.7
2015-Mar-24 02:32N 50°58' E 001°15'7 7.4
2015-Mar-24 01:33N 51°03' E 001°24'9 9.2
2015-Mar-24 00:33N 51°08' E 001°35'1111.3
2015-Mar-23 23:34N 51°16' E 001°48'1212.4
2015-Mar-23 22:33N 51°26' E 001°60'1212.1
2015-Mar-23 21:33N 51°35' E 002°13'61 8.4
2015-Mar-23 14:18N 52°03' E 003°41'7 9.8
2015-Mar-23 13:33N 52°02' E 003°53'10 9.9
2015-Mar-23 12:33N 51°58' E 004°08'1110.5
2015-Mar-23 11:33N 51°54' E 004°23'1 1.2
2015-Mar-23 10:30N 51°54' E 004°25'0 0.0
2015-Mar-23 09:33N 51°54' E 004°25'0 0.0
2015-Mar-23 08:33N 51°54' E 004°25'0 0.0
2015-Mar-23 07:33N 51°54' E 004°25'0 0.0
2015-Mar-23 06:33N 51°54' E 004°25'0 0.0
2015-Mar-23 05:33N 51°54' E 004°25'0 0.0
2015-Mar-23 04:33N 51°54' E 004°25'0 0.0
2015-Mar-23 03:33N 51°54' E 004°25'0 0.0
2015-Mar-23 02:33N 51°54' E 004°25'0 0.0
2015-Mar-23 01:33N 51°54' E 004°25'0 0.0
2015-Mar-23 00:33N 51°54' E 004°25'0 0.0
2015-Mar-22 23:33N 51°54' E 004°25'0 0.0
2015-Mar-22 22:33N 51°54' E 004°25'0 0.0
2015-Mar-22 21:33N 51°54' E 004°25'0 0.0
2015-Mar-22 20:30N 51°54' E 004°25'0 0.0
2015-Mar-22 19:33N 51°54' E 004°25'0 0.0
2015-Mar-22 18:33N 51°54' E 004°25'0 0.0
2015-Mar-22 17:33N 51°54' E 004°25'0 0.0
2015-Mar-22 16:33N 51°54' E 004°25'0 0.4
2015-Mar-22 15:33N 51°54' E 004°25'1010.5
2015-Mar-22 14:33N 51°58' E 004°09'10 9.6
2015-Mar-22 13:33N 52°00' E 003°54'76 9.3
2015-Mar-22 05:28N 52°39' E 002°08'7 7.9
2015-Mar-22 04:33N 52°43' E 001°58'7 7.0
2015-Mar-22 03:33N 52°47' E 001°48'7 7.1
2015-Mar-22 02:33N 52°51' E 001°39'  

Dump ship's entire track history